sensor_id;sensor_type;location;lat;lon;timestamp;pressure;altitude;pressure_sealevel;temperature;humidity
63306;BME280;50735;52.060;1.248;2022-10-16T06:31:10;100699.59;;;8.95;56.57
63306;BME280;50735;52.060;1.248;2022-10-16T06:33:38;100703.18;;;9.04;56.76
63306;BME280;50735;52.060;1.248;2022-10-16T06:36:07;100706.53;;;9.06;56.31
63306;BME280;50735;52.060;1.248;2022-10-16T06:38:34;100715.93;;;8.95;56.66
63306;BME280;50735;52.060;1.248;2022-10-16T06:41:02;100724.30;;;9.42;56.03
63306;BME280;50735;52.060;1.248;2022-10-16T06:43:30;100727.91;;;9.49;55.81
63306;BME280;50735;52.060;1.248;2022-10-16T06:45:57;100733.15;;;9.58;55.62
63306;BME280;50735;52.060;1.248;2022-10-16T06:48:25;100729.04;;;9.51;55.74
63306;BME280;50735;52.060;1.248;2022-10-16T06:50:57;100735.17;;;9.54;55.65
63306;BME280;50735;52.060;1.248;2022-10-16T06:53:27;100743.44;;;9.50;55.34
63306;BME280;50735;52.060;1.248;2022-10-16T06:55:54;100752.31;;;9.49;55.40
63306;BME280;50735;52.060;1.248;2022-10-16T06:58:21;100755.23;;;9.65;55.42
63306;BME280;50735;52.060;1.248;2022-10-16T07:00:49;100762.18;;;9.78;55.20
63306;BME280;50735;52.060;1.248;2022-10-16T07:03:21;100764.47;;;9.59;54.76
63306;BME280;50735;52.060;1.248;2022-10-16T07:05:48;100766.68;;;9.70;55.44
63306;BME280;50735;52.060;1.248;2022-10-16T07:08:14;100774.91;;;9.40;55.74
63306;BME280;50735;52.060;1.248;2022-10-16T07:10:41;100783.35;;;9.72;55.46
63306;BME280;50735;52.060;1.248;2022-10-16T07:13:07;100785.76;;;9.63;55.31
63306;BME280;50735;52.060;1.248;2022-10-16T07:15:34;100788.79;;;9.60;55.52
63306;BME280;50735;52.060;1.248;2022-10-16T07:18:01;100795.47;;;9.65;55.89
63306;BME280;50735;52.060;1.248;2022-10-16T07:20:28;100797.74;;;9.78;55.75
63306;BME280;50735;52.060;1.248;2022-10-16T07:22:54;100810.42;;;9.30;56.11
63306;BME280;50735;52.060;1.248;2022-10-16T07:25:21;100816.02;;;9.30;56.58
63306;BME280;50735;52.060;1.248;2022-10-16T07:27:48;100823.81;;;9.30;56.31
63306;BME280;50735;52.060;1.248;2022-10-16T07:30:14;100825.81;;;9.57;55.87
63306;BME280;50735;52.060;1.248;2022-10-16T07:32:41;100827.73;;;9.44;55.91
63306;BME280;50735;52.060;1.248;2022-10-16T07:35:08;100841.83;;;9.67;55.67
63306;BME280;50735;52.060;1.248;2022-10-16T07:37:35;100837.77;;;9.46;55.72
63306;BME280;50735;52.060;1.248;2022-10-16T07:40:02;100843.54;;;9.94;55.55
63306;BME280;50735;52.060;1.248;2022-10-16T07:42:29;100847.02;;;9.86;55.10
63306;BME280;50735;52.060;1.248;2022-10-16T07:44:56;100849.50;;;10.05;54.80
63306;BME280;50735;52.060;1.248;2022-10-16T07:47:22;100859.63;;;10.18;54.59
63306;BME280;50735;52.060;1.248;2022-10-16T07:49:49;100862.03;;;9.96;54.91
63306;BME280;50735;52.060;1.248;2022-10-16T07:52:16;100867.01;;;10.02;54.84
63306;BME280;50735;52.060;1.248;2022-10-16T07:54:42;100865.97;;;9.96;54.96
63306;BME280;50735;52.060;1.248;2022-10-16T07:57:09;100867.33;;;9.80;54.98
63306;BME280;50735;52.060;1.248;2022-10-16T07:59:36;100867.20;;;9.98;55.20
63306;BME280;50735;52.060;1.248;2022-10-16T08:02:02;100867.49;;;10.10;54.86
63306;BME280;50735;52.060;1.248;2022-10-16T08:04:29;100871.94;;;10.11;54.75
63306;BME280;50735;52.060;1.248;2022-10-16T08:06:56;100872.47;;;10.04;54.70
63306;BME280;50735;52.060;1.248;2022-10-16T08:09:23;100877.12;;;10.02;54.37
63306;BME280;50735;52.060;1.248;2022-10-16T08:11:49;100879.99;;;10.37;54.21
63306;BME280;50735;52.060;1.248;2022-10-16T08:14:16;100883.85;;;10.50;53.60
63306;BME280;50735;52.060;1.248;2022-10-16T08:16:43;100886.11;;;10.58;53.61
63306;BME280;50735;52.060;1.248;2022-10-16T08:19:09;100885.70;;;10.28;53.65
63306;BME280;50735;52.060;1.248;2022-10-16T08:21:37;100889.78;;;10.46;52.67
63306;BME280;50735;52.060;1.248;2022-10-16T08:24:04;100897.77;;;10.73;52.51
63306;BME280;50735;52.060;1.248;2022-10-16T08:26:31;100898.33;;;11.00;52.23
63306;BME280;50735;52.060;1.248;2022-10-16T08:28:58;100910.02;;;10.83;52.08
63306;BME280;50735;52.060;1.248;2022-10-16T08:31:25;100917.29;;;10.83;51.84
63306;BME280;50735;52.060;1.248;2022-10-16T08:33:52;100923.33;;;10.73;52.04
63306;BME280;50735;52.060;1.248;2022-10-16T08:36:19;100918.17;;;10.93;51.38
63306;BME280;50735;52.060;1.248;2022-10-16T08:38:48;100913.23;;;10.77;51.50
63306;BME280;50735;52.060;1.248;2022-10-16T08:41:28;100913.39;;;11.20;50.98
63306;BME280;50735;52.060;1.248;2022-10-16T08:44:13;100914.69;;;11.34;50.58
63306;BME280;50735;52.060;1.248;2022-10-16T08:46:49;100913.13;;;11.20;50.58
63306;BME280;50735;52.060;1.248;2022-10-16T08:49:22;100916.09;;;11.39;50.12
63306;BME280;50735;52.060;1.248;2022-10-16T08:51:49;100918.20;;;11.23;49.95
63306;BME280;50735;52.060;1.248;2022-10-16T08:54:25;100925.72;;;11.45;49.79
63306;BME280;50735;52.060;1.248;2022-10-16T08:56:55;100934.67;;;11.27;49.95
63306;BME280;50735;52.060;1.248;2022-10-16T08:59:23;100934.32;;;11.47;49.82
63306;BME280;50735;52.060;1.248;2022-10-16T09:01:50;100940.44;;;11.94;48.91
63306;BME280;50735;52.060;1.248;2022-10-16T09:04:39;100944.92;;;11.93;48.75
63306;BME280;50735;52.060;1.248;2022-10-16T09:07:14;100944.51;;;12.35;48.07
63306;BME280;50735;52.060;1.248;2022-10-16T09:09:54;100955.77;;;12.27;47.75
63306;BME280;50735;52.060;1.248;2022-10-16T09:12:30;100959.61;;;12.21;47.54
63306;BME280;50735;52.060;1.248;2022-10-16T09:15:05;100962.41;;;12.27;47.83
63306;BME280;50735;52.060;1.248;2022-10-16T09:17:42;100966.74;;;12.66;46.54
63306;BME280;50735;52.060;1.248;2022-10-16T09:20:20;100962.20;;;12.91;46.16
63306;BME280;50735;52.060;1.248;2022-10-16T09:22:52;100964.71;;;13.04;45.13
63306;BME280;50735;52.060;1.248;2022-10-16T09:25:21;100958.63;;;13.41;44.86
63306;BME280;50735;52.060;1.248;2022-10-16T09:27:49;100960.25;;;13.90;43.78
63306;BME280;50735;52.060;1.248;2022-10-16T09:30:20;100964.20;;;14.18;42.37
63306;BME280;50735;52.060;1.248;2022-10-16T09:32:49;100974.66;;;14.59;41.28
63306;BME280;50735;52.060;1.248;2022-10-16T09:35:20;100979.63;;;14.53;40.53
63306;BME280;50735;52.060;1.248;2022-10-16T09:37:51;100976.70;;;14.51;40.83
63306;BME280;50735;52.060;1.248;2022-10-16T09:40:25;100975.78;;;15.45;38.96
63306;BME280;50735;52.060;1.248;2022-10-16T09:43:01;100979.96;;;15.79;38.19
63306;BME280;50735;52.060;1.248;2022-10-16T09:45:29;100979.81;;;16.58;37.62
63306;BME280;50735;52.060;1.248;2022-10-16T09:47:56;100981.62;;;17.04;36.32
63306;BME280;50735;52.060;1.248;2022-10-16T09:50:24;100982.81;;;17.18;35.29
63306;BME280;50735;52.060;1.248;2022-10-16T09:53:03;100986.07;;;16.76;35.49
63306;BME280;50735;52.060;1.248;2022-10-16T09:55:31;100986.84;;;16.91;35.43
63306;BME280;50735;52.060;1.248;2022-10-16T09:57:58;100991.53;;;16.82;35.22
63306;BME280;50735;52.060;1.248;2022-10-16T10:00:25;100978.56;;;17.85;34.37
63306;BME280;50735;52.060;1.248;2022-10-16T10:02:53;100977.53;;;18.84;34.29
63306;BME280;50735;52.060;1.248;2022-10-16T10:05:22;100974.81;;;19.38;32.87
63306;BME280;50735;52.060;1.248;2022-10-16T10:07:54;100983.48;;;19.42;32.00
63306;BME280;50735;52.060;1.248;2022-10-16T10:10:24;100984.86;;;19.96;31.77
63306;BME280;50735;52.060;1.248;2022-10-16T10:12:51;100986.25;;;19.44;30.82
63306;BME280;50735;52.060;1.248;2022-10-16T10:15:18;100984.61;;;19.26;31.00
63306;BME280;50735;52.060;1.248;2022-10-16T10:17:47;100985.06;;;19.71;31.29
63306;BME280;50735;52.060;1.248;2022-10-16T10:20:23;100984.21;;;19.07;30.66
63306;BME280;50735;52.060;1.248;2022-10-16T10:22:51;100986.50;;;19.51;30.44
63306;BME280;50735;52.060;1.248;2022-10-16T10:25:25;100989.78;;;19.24;30.85
63306;BME280;50735;52.060;1.248;2022-10-16T10:28:03;100995.63;;;19.35;31.41
63306;BME280;50735;52.060;1.248;2022-10-16T10:30:38;100999.07;;;19.89;30.38
63306;BME280;50735;52.060;1.248;2022-10-16T10:33:15;100996.85;;;19.73;29.93
63306;BME280;50735;52.060;1.248;2022-10-16T10:35:52;100991.40;;;20.05;30.29
63306;BME280;50735;52.060;1.248;2022-10-16T10:38:32;101000.58;;;20.07;30.26
63306;BME280;50735;52.060;1.248;2022-10-16T10:41:14;101002.90;;;20.05;30.07
63306;BME280;50735;52.060;1.248;2022-10-16T10:43:55;101004.11;;;20.77;29.55
63306;BME280;50735;52.060;1.248;2022-10-16T10:46:32;101007.81;;;20.87;29.44
63306;BME280;50735;52.060;1.248;2022-10-16T10:49:12;101011.62;;;21.07;28.38
63306;BME280;50735;52.060;1.248;2022-10-16T10:51:49;101014.27;;;20.73;28.53
63306;BME280;50735;52.060;1.248;2022-10-16T10:54:27;101017.78;;;21.05;27.92
63306;BME280;50735;52.060;1.248;2022-10-16T10:56:59;101020.80;;;21.11;28.14
63306;BME280;50735;52.060;1.248;2022-10-16T10:59:38;101020.28;;;20.94;27.98
63306;BME280;50735;52.060;1.248;2022-10-16T11:02:16;101018.18;;;20.76;27.84
63306;BME280;50735;52.060;1.248;2022-10-16T11:04:58;101010.94;;;20.21;28.38
63306;BME280;50735;52.060;1.248;2022-10-16T11:07:37;101012.92;;;20.22;28.31
63306;BME280;50735;52.060;1.248;2022-10-16T11:10:12;101020.55;;;19.07;29.51
63306;BME280;50735;52.060;1.248;2022-10-16T11:12:42;101012.45;;;19.48;29.52
63306;BME280;50735;52.060;1.248;2022-10-16T11:15:15;101017.60;;;19.08;29.68
63306;BME280;50735;52.060;1.248;2022-10-16T11:17:48;101014.84;;;19.44;29.83
63306;BME280;50735;52.060;1.248;2022-10-16T11:20:19;101021.50;;;18.91;30.34
63306;BME280;50735;52.060;1.248;2022-10-16T11:22:51;101025.27;;;18.35;31.13
63306;BME280;50735;52.060;1.248;2022-10-16T11:25:23;101027.37;;;18.01;31.35
63306;BME280;50735;52.060;1.248;2022-10-16T11:27:56;101022.11;;;18.27;31.43
63306;BME280;50735;52.060;1.248;2022-10-16T11:30:26;101024.49;;;17.99;31.31
63306;BME280;50735;52.060;1.248;2022-10-16T11:33:03;101022.35;;;18.17;31.28
63306;BME280;50735;52.060;1.248;2022-10-16T11:35:39;101021.45;;;18.37;31.56
63306;BME280;50735;52.060;1.248;2022-10-16T11:38:12;101026.97;;;17.73;32.03
63306;BME280;50735;52.060;1.248;2022-10-16T11:40:43;101027.54;;;17.84;31.94
63306;BME280;50735;52.060;1.248;2022-10-16T11:43:14;101019.94;;;17.92;31.84
63306;BME280;50735;52.060;1.248;2022-10-16T11:45:43;101019.66;;;18.26;31.62
63306;BME280;50735;52.060;1.248;2022-10-16T11:48:20;101031.26;;;17.84;31.82
63306;BME280;50735;52.060;1.248;2022-10-16T11:50:53;101031.85;;;18.40;31.69
63306;BME280;50735;52.060;1.248;2022-10-16T11:53:28;101035.85;;;17.74;32.33
63306;BME280;50735;52.060;1.248;2022-10-16T11:56:00;101031.33;;;17.83;32.48
63306;BME280;50735;52.060;1.248;2022-10-16T11:58:29;101035.37;;;17.43;32.94
63306;BME280;50735;52.060;1.248;2022-10-16T12:01:02;101034.42;;;17.51;32.64
63306;BME280;50735;52.060;1.248;2022-10-16T12:03:41;101034.53;;;17.77;32.80
63306;BME280;50735;52.060;1.248;2022-10-16T12:06:21;101029.00;;;17.88;32.54
63306;BME280;50735;52.060;1.248;2022-10-16T12:08:49;101033.75;;;17.46;32.92
63306;BME280;50735;52.060;1.248;2022-10-16T12:11:24;101027.04;;;17.52;32.95
63306;BME280;50735;52.060;1.248;2022-10-16T12:14:06;101024.37;;;17.54;33.02
63306;BME280;50735;52.060;1.248;2022-10-16T12:16:34;101028.67;;;17.42;32.92
63306;BME280;50735;52.060;1.248;2022-10-16T12:19:13;101033.98;;;17.92;32.97
63306;BME280;50735;52.060;1.248;2022-10-16T12:21:41;101034.46;;;17.62;33.01
63306;BME280;50735;52.060;1.248;2022-10-16T12:24:26;101036.22;;;18.00;33.24
63306;BME280;50735;52.060;1.248;2022-10-16T12:26:54;101034.47;;;18.31;32.32
63306;BME280;50735;52.060;1.248;2022-10-16T12:29:26;101037.98;;;18.33;32.01
63306;BME280;50735;52.060;1.248;2022-10-16T12:31:56;101032.94;;;18.64;31.78
63306;BME280;50735;52.060;1.248;2022-10-16T12:34:27;101028.56;;;18.39;31.53
63306;BME280;50735;52.060;1.248;2022-10-16T12:36:56;101026.15;;;18.97;31.74
63306;BME280;50735;52.060;1.248;2022-10-16T12:39:35;101026.84;;;18.99;31.69
63306;BME280;50735;52.060;1.248;2022-10-16T12:42:04;101022.84;;;19.34;31.83
63306;BME280;50735;52.060;1.248;2022-10-16T12:44:33;101017.52;;;19.05;31.89
63306;BME280;50735;52.060;1.248;2022-10-16T12:47:01;101021.07;;;18.99;32.20
63306;BME280;50735;52.060;1.248;2022-10-16T12:49:35;101024.83;;;18.47;32.13
63306;BME280;50735;52.060;1.248;2022-10-16T12:52:03;101024.41;;;18.55;32.34
63306;BME280;50735;52.060;1.248;2022-10-16T12:54:31;101031.98;;;18.31;32.52
63306;BME280;50735;52.060;1.248;2022-10-16T12:57:12;101038.48;;;18.40;32.68
63306;BME280;50735;52.060;1.248;2022-10-16T12:59:53;101044.64;;;18.38;32.64
63306;BME280;50735;52.060;1.248;2022-10-16T13:03:22;101050.91;;;18.53;32.56
63306;BME280;50735;52.060;1.248;2022-10-16T13:06:02;101050.24;;;18.24;32.81
63306;BME280;50735;52.060;1.248;2022-10-16T13:08:48;101046.25;;;18.27;32.85
63306;BME280;50735;52.060;1.248;2022-10-16T13:11:26;101040.18;;;18.22;32.66
63306;BME280;50735;52.060;1.248;2022-10-16T13:14:11;101034.84;;;17.60;32.45
63306;BME280;50735;52.060;1.248;2022-10-16T13:16:50;101033.24;;;18.18;32.13
63306;BME280;50735;52.060;1.248;2022-10-16T13:19:27;101035.01;;;17.92;31.79
63306;BME280;50735;52.060;1.248;2022-10-16T13:22:01;101037.56;;;17.72;31.95
63306;BME280;50735;52.060;1.248;2022-10-16T13:24:42;101038.85;;;17.34;32.62
63306;BME280;50735;52.060;1.248;2022-10-16T13:27:23;101038.07;;;17.68;32.63
63306;BME280;50735;52.060;1.248;2022-10-16T13:30:01;101038.37;;;17.21;33.03
63306;BME280;50735;52.060;1.248;2022-10-16T13:32:28;101036.97;;;17.19;34.16
63306;BME280;50735;52.060;1.248;2022-10-16T13:34:55;101036.20;;;17.00;36.56
63306;BME280;50735;52.060;1.248;2022-10-16T13:37:23;101035.63;;;16.11;38.30
63306;BME280;50735;52.060;1.248;2022-10-16T13:39:50;101040.85;;;16.42;39.03
63306;BME280;50735;52.060;1.248;2022-10-16T13:42:26;101041.88;;;16.11;39.06
63306;BME280;50735;52.060;1.248;2022-10-16T13:44:55;101043.86;;;15.68;39.47
63306;BME280;50735;52.060;1.248;2022-10-16T13:47:24;101053.09;;;15.50;39.90
63306;BME280;50735;52.060;1.248;2022-10-16T13:49:59;101056.04;;;15.05;40.48
63306;BME280;50735;52.060;1.248;2022-10-16T13:52:27;101057.63;;;14.81;40.99
63306;BME280;50735;52.060;1.248;2022-10-16T13:54:54;101058.61;;;15.20;40.64
63306;BME280;50735;52.060;1.248;2022-10-16T13:57:23;101063.21;;;15.28;40.55
63306;BME280;50735;52.060;1.248;2022-10-16T13:59:50;101059.62;;;15.58;40.25
63306;BME280;50735;52.060;1.248;2022-10-16T14:02:25;101062.19;;;16.08;39.64
63306;BME280;50735;52.060;1.248;2022-10-16T14:04:53;101058.71;;;15.91;39.70
63306;BME280;50735;52.060;1.248;2022-10-16T14:07:24;101054.71;;;15.62;42.71
63306;BME280;50735;52.060;1.248;2022-10-16T14:09:52;101054.90;;;15.90;39.56
63306;BME280;50735;52.060;1.248;2022-10-16T14:12:20;101047.41;;;15.64;40.31
63306;BME280;50735;52.060;1.248;2022-10-16T14:14:50;101044.97;;;15.64;40.00
63306;BME280;50735;52.060;1.248;2022-10-16T14:17:19;101045.75;;;15.81;40.28
63306;BME280;50735;52.060;1.248;2022-10-16T14:19:50;101045.84;;;15.91;40.12
63306;BME280;50735;52.060;1.248;2022-10-16T14:22:28;101049.60;;;16.19;39.89
63306;BME280;50735;52.060;1.248;2022-10-16T14:24:56;101040.95;;;16.41;39.80
63306;BME280;50735;52.060;1.248;2022-10-16T14:27:29;101039.41;;;16.62;39.44
63306;BME280;50735;52.060;1.248;2022-10-16T14:30:15;101036.12;;;16.39;39.49
63306;BME280;50735;52.060;1.248;2022-10-16T14:32:54;101037.72;;;16.49;39.47
63306;BME280;50735;52.060;1.248;2022-10-16T14:35:24;101043.54;;;16.09;39.43
63306;BME280;50735;52.060;1.248;2022-10-16T14:37:52;101043.83;;;16.42;39.53
63306;BME280;50735;52.060;1.248;2022-10-16T14:40:19;101044.94;;;16.42;39.42
63306;BME280;50735;52.060;1.248;2022-10-16T14:42:47;101046.36;;;15.91;40.18
63306;BME280;50735;52.060;1.248;2022-10-16T14:45:18;101047.47;;;15.91;40.85
63306;BME280;50735;52.060;1.248;2022-10-16T14:47:50;101049.74;;;15.76;40.96
63306;BME280;50735;52.060;1.248;2022-10-16T14:50:17;101051.96;;;15.76;41.16
63306;BME280;50735;52.060;1.248;2022-10-16T14:52:43;101052.04;;;15.57;41.34
63306;BME280;50735;52.060;1.248;2022-10-16T14:55:10;101062.85;;;15.00;42.17
63306;BME280;50735;52.060;1.248;2022-10-16T14:57:38;101056.16;;;15.11;43.86
63306;BME280;50735;52.060;1.248;2022-10-16T15:00:13;101053.39;;;15.25;42.46
63306;BME280;50735;52.060;1.248;2022-10-16T15:02:41;101051.44;;;15.31;42.27
63306;BME280;50735;52.060;1.248;2022-10-16T15:05:13;101051.79;;;14.83;43.61
63306;BME280;50735;52.060;1.248;2022-10-16T15:07:40;101053.91;;;14.59;43.68
63306;BME280;50735;52.060;1.248;2022-10-16T15:10:08;101057.20;;;14.66;43.56
63306;BME280;50735;52.060;1.248;2022-10-16T15:12:35;101057.79;;;14.60;43.54
63306;BME280;50735;52.060;1.248;2022-10-16T15:15:05;101051.50;;;14.94;43.69
63306;BME280;50735;52.060;1.248;2022-10-16T15:17:41;101045.40;;;14.85;44.23
63306;BME280;50735;52.060;1.248;2022-10-16T15:20:08;101044.78;;;14.85;44.03
63306;BME280;50735;52.060;1.248;2022-10-16T15:22:35;101046.82;;;15.32;44.04
63306;BME280;50735;52.060;1.248;2022-10-16T15:25:04;101046.91;;;15.14;44.07
63306;BME280;50735;52.060;1.248;2022-10-16T15:27:36;101045.85;;;15.26;44.36
63306;BME280;50735;52.060;1.248;2022-10-16T15:30:04;101044.46;;;15.04;44.53
63306;BME280;50735;52.060;1.248;2022-10-16T15:32:30;101045.47;;;14.55;45.66
63306;BME280;50735;52.060;1.248;2022-10-16T15:34:57;101052.97;;;14.33;46.01
63306;BME280;50735;52.060;1.248;2022-10-16T15:37:24;101057.25;;;14.61;46.11
63306;BME280;50735;52.060;1.248;2022-10-16T15:39:50;101049.68;;;14.17;46.75
63306;BME280;50735;52.060;1.248;2022-10-16T15:42:17;101050.03;;;14.20;47.20
63306;BME280;50735;52.060;1.248;2022-10-16T15:44:44;101050.20;;;14.55;46.67
63306;BME280;50735;52.060;1.248;2022-10-16T15:47:11;101048.39;;;14.12;47.15
63306;BME280;50735;52.060;1.248;2022-10-16T15:49:37;101049.86;;;14.38;47.17
63306;BME280;50735;52.060;1.248;2022-10-16T15:52:04;101050.09;;;14.31;47.67
63306;BME280;50735;52.060;1.248;2022-10-16T15:54:30;101052.25;;;14.26;47.27
63306;BME280;50735;52.060;1.248;2022-10-16T15:56:57;101054.01;;;14.42;47.68
63306;BME280;50735;52.060;1.248;2022-10-16T15:59:23;101060.22;;;14.59;47.56
63306;BME280;50735;52.060;1.248;2022-10-16T16:01:50;101060.71;;;14.40;48.22
63306;BME280;50735;52.060;1.248;2022-10-16T16:04:16;101062.75;;;14.32;47.95
63306;BME280;50735;52.060;1.248;2022-10-16T16:06:43;101065.59;;;14.54;48.14
63306;BME280;50735;52.060;1.248;2022-10-16T16:09:10;101061.40;;;14.56;48.55
63306;BME280;50735;52.060;1.248;2022-10-16T16:11:37;101057.11;;;14.41;49.01
63306;BME280;50735;52.060;1.248;2022-10-16T16:14:06;101057.25;;;14.43;49.10
63306;BME280;50735;52.060;1.248;2022-10-16T16:16:33;101056.06;;;14.50;49.11
63306;BME280;50735;52.060;1.248;2022-10-16T16:19:00;101054.57;;;14.34;49.95
63306;BME280;50735;52.060;1.248;2022-10-16T16:21:26;101055.86;;;14.60;50.07
63306;BME280;50735;52.060;1.248;2022-10-16T16:23:53;101053.76;;;14.17;51.01
63306;BME280;50735;52.060;1.248;2022-10-16T16:26:23;101052.42;;;14.09;51.42
63306;BME280;50735;52.060;1.248;2022-10-16T16:28:50;101052.38;;;13.82;51.74
63306;BME280;50735;52.060;1.248;2022-10-16T16:31:17;101050.46;;;14.19;52.66
63306;BME280;50735;52.060;1.248;2022-10-16T16:33:44;101044.00;;;13.90;52.71
63306;BME280;50735;52.060;1.248;2022-10-16T16:36:12;101048.76;;;13.65;53.67
63306;BME280;50735;52.060;1.248;2022-10-16T16:38:39;101043.86;;;14.07;53.14
63306;BME280;50735;52.060;1.248;2022-10-16T16:41:14;101047.91;;;13.96;53.17
63306;BME280;50735;52.060;1.248;2022-10-16T16:43:41;101049.03;;;13.93;53.60
63306;BME280;50735;52.060;1.248;2022-10-16T16:46:08;101048.20;;;14.16;53.09
63306;BME280;50735;52.060;1.248;2022-10-16T16:48:36;101042.88;;;14.08;54.15
63306;BME280;50735;52.060;1.248;2022-10-16T16:51:04;101047.87;;;14.42;53.65
63306;BME280;50735;52.060;1.248;2022-10-16T16:53:33;101043.28;;;14.29;52.96
63306;BME280;50735;52.060;1.248;2022-10-16T16:56:01;101044.11;;;14.18;54.34
63306;BME280;50735;52.060;1.248;2022-10-16T16:58:28;101039.14;;;13.80;55.32
63306;BME280;50735;52.060;1.248;2022-10-16T17:00:54;101039.53;;;13.93;55.10
63306;BME280;50735;52.060;1.248;2022-10-16T17:03:21;101041.06;;;13.95;55.18
63306;BME280;50735;52.060;1.248;2022-10-16T17:05:55;101043.53;;;13.98;55.66
63306;BME280;50735;52.060;1.248;2022-10-16T17:08:22;101045.16;;;13.97;55.06
63306;BME280;50735;52.060;1.248;2022-10-16T17:10:48;101040.47;;;13.87;55.65
63306;BME280;50735;52.060;1.248;2022-10-16T17:13:16;101035.21;;;13.91;55.52
63306;BME280;50735;52.060;1.248;2022-10-16T17:15:46;101028.76;;;13.76;55.77
63306;BME280;50735;52.060;1.248;2022-10-16T17:18:13;101031.50;;;13.86;56.15
63306;BME280;50735;52.060;1.248;2022-10-16T17:20:40;101036.80;;;14.25;55.50
63306;BME280;50735;52.060;1.248;2022-10-16T17:23:08;101043.17;;;14.29;54.81
63306;BME280;50735;52.060;1.248;2022-10-16T17:25:35;101054.24;;;14.37;55.48
63306;BME280;50735;52.060;1.248;2022-10-16T17:28:03;101054.82;;;14.06;55.29
63306;BME280;50735;52.060;1.248;2022-10-16T17:30:29;101056.05;;;14.31;55.71
63306;BME280;50735;52.060;1.248;2022-10-16T17:32:56;101049.89;;;14.22;55.50
63306;BME280;50735;52.060;1.248;2022-10-16T17:35:23;101044.75;;;13.98;55.68
63306;BME280;50735;52.060;1.248;2022-10-16T17:37:51;101044.67;;;14.44;55.48
63306;BME280;50735;52.060;1.248;2022-10-16T17:40:18;101049.90;;;14.04;55.42
63306;BME280;50735;52.060;1.248;2022-10-16T17:42:45;101050.61;;;14.03;55.74
63306;BME280;50735;52.060;1.248;2022-10-16T17:45:12;101048.88;;;14.20;55.46
63306;BME280;50735;52.060;1.248;2022-10-16T17:47:39;101044.47;;;14.06;56.20
63306;BME280;50735;52.060;1.248;2022-10-16T17:50:06;101036.90;;;14.31;56.22
63306;BME280;50735;52.060;1.248;2022-10-16T17:52:33;101040.52;;;14.18;56.08
63306;BME280;50735;52.060;1.248;2022-10-16T17:54:59;101042.41;;;14.22;55.95
63306;BME280;50735;52.060;1.248;2022-10-16T17:57:26;101038.35;;;14.43;56.07
63306;BME280;50735;52.060;1.248;2022-10-16T17:59:53;101042.54;;;13.64;56.95
63306;BME280;50735;52.060;1.248;2022-10-16T18:02:20;101041.21;;;14.07;56.86
63306;BME280;50735;52.060;1.248;2022-10-16T18:04:46;101036.54;;;13.53;57.51
63306;BME280;50735;52.060;1.248;2022-10-16T18:07:15;101022.41;;;13.52;58.15
63306;BME280;50735;52.060;1.248;2022-10-16T18:09:41;101022.99;;;13.57;58.90
63306;BME280;50735;52.060;1.248;2022-10-16T18:12:08;101032.33;;;13.40;58.86
63306;BME280;50735;52.060;1.248;2022-10-16T18:14:35;101028.33;;;13.75;58.97
63306;BME280;50735;52.060;1.248;2022-10-16T18:17:02;101023.54;;;13.72;59.40
63306;BME280;50735;52.060;1.248;2022-10-16T18:19:29;101019.95;;;13.59;59.99
63306;BME280;50735;52.060;1.248;2022-10-16T18:21:55;101014.90;;;13.76;59.80
63306;BME280;50735;52.060;1.248;2022-10-16T18:24:24;101013.94;;;13.65;60.14
63306;BME280;50735;52.060;1.248;2022-10-16T18:26:53;101007.76;;;13.58;60.36
63306;BME280;50735;52.060;1.248;2022-10-16T18:29:20;101005.28;;;13.75;60.31
63306;BME280;50735;52.060;1.248;2022-10-16T18:31:46;101011.26;;;13.74;60.50
63306;BME280;50735;52.060;1.248;2022-10-16T18:34:13;101014.98;;;13.64;60.31
63306;BME280;50735;52.060;1.248;2022-10-16T18:36:39;101002.40;;;13.75;60.27
63306;BME280;50735;52.060;1.248;2022-10-16T18:39:06;100994.08;;;13.67;60.48
63306;BME280;50735;52.060;1.248;2022-10-16T18:41:34;100995.21;;;13.60;60.65
63306;BME280;50735;52.060;1.248;2022-10-16T18:44:01;101003.39;;;13.61;61.59
63306;BME280;50735;52.060;1.248;2022-10-16T18:46:27;101012.56;;;13.17;62.11
63306;BME280;50735;52.060;1.248;2022-10-16T18:48:56;101015.54;;;13.24;62.27
63306;BME280;50735;52.060;1.248;2022-10-16T18:51:25;101027.91;;;13.51;61.72
63306;BME280;50735;52.060;1.248;2022-10-16T18:53:56;101025.45;;;13.75;61.94
63306;BME280;50735;52.060;1.248;2022-10-16T18:56:24;101040.22;;;13.64;62.67
63306;BME280;50735;52.060;1.248;2022-10-16T18:58:52;101042.78;;;13.90;62.36
63306;BME280;50735;52.060;1.248;2022-10-16T19:01:21;101040.39;;;13.73;62.03
63306;BME280;50735;52.060;1.248;2022-10-16T19:03:53;101038.27;;;13.58;62.50
63306;BME280;50735;52.060;1.248;2022-10-16T19:06:21;101038.50;;;13.60;62.27
63306;BME280;50735;52.060;1.248;2022-10-16T19:08:48;101040.26;;;13.28;63.37
63306;BME280;50735;52.060;1.248;2022-10-16T19:11:17;101038.58;;;12.74;64.25
63306;BME280;50735;52.060;1.248;2022-10-16T19:13:45;101037.31;;;13.22;64.05
63306;BME280;50735;52.060;1.248;2022-10-16T19:16:14;101026.10;;;13.06;64.10
63306;BME280;50735;52.060;1.248;2022-10-16T19:18:41;101019.52;;;13.04;63.45
63306;BME280;50735;52.060;1.248;2022-10-16T19:21:09;101018.15;;;13.04;63.77
63306;BME280;50735;52.060;1.248;2022-10-16T19:23:37;101014.76;;;13.27;63.71
63306;BME280;50735;52.060;1.248;2022-10-16T19:26:06;101019.64;;;12.98;63.36
63306;BME280;50735;52.060;1.248;2022-10-16T19:28:34;101013.05;;;13.30;63.96
63306;BME280;50735;52.060;1.248;2022-10-16T19:31:01;101008.48;;;13.23;64.41
63306;BME280;50735;52.060;1.248;2022-10-16T19:33:28;101003.00;;;12.95;65.30
63306;BME280;50735;52.060;1.248;2022-10-16T19:36:06;100991.24;;;13.17;64.65